createdAt,value
2023-12-30T00:02:26.860Z,1.88
2023-12-30T00:04:54.043Z,1.02
2023-12-30T00:07:21.209Z,1.67
2023-12-30T00:09:48.367Z,1.30
2023-12-30T00:12:15.812Z,1.83
2023-12-30T00:14:43.042Z,1.60
2023-12-30T00:17:10.271Z,1.13
2023-12-30T00:19:37.823Z,1.40
2023-12-30T00:22:05.121Z,1.45
2023-12-30T00:24:32.916Z,1.35
2023-12-30T00:26:59.992Z,1.02
2023-12-30T00:29:28.218Z,1.55
2023-12-30T00:31:55.381Z,1.10
2023-12-30T00:34:22.664Z,1.20
2023-12-30T00:36:49.867Z,1.30
2023-12-30T00:39:17.374Z,0.73
2023-12-30T00:41:44.507Z,1.50
2023-12-30T00:44:12.069Z,1.17
2023-12-30T00:46:39.469Z,1.80
2023-12-30T00:49:09.857Z,0.95
2023-12-30T00:51:37.033Z,1.23
2023-12-30T00:54:04.525Z,1.55
2023-12-30T00:56:31.652Z,1.52
2023-12-30T00:58:59.206Z,0.80
2023-12-30T01:01:26.401Z,1.63
2023-12-30T01:03:54.071Z,1.27
2023-12-30T01:06:21.208Z,1.00
2023-12-30T01:08:48.304Z,1.25
2023-12-30T01:11:15.731Z,1.23
2023-12-30T01:13:42.901Z,1.10
2023-12-30T01:16:10.056Z,1.27
2023-12-30T01:18:37.293Z,1.38
2023-12-30T01:21:04.974Z,1.42
2023-12-30T01:23:32.402Z,1.33
2023-12-30T01:25:59.820Z,1.42
2023-12-30T01:28:27.079Z,4.78
2023-12-30T01:30:54.792Z,1.13
2023-12-30T01:33:22.051Z,1.17
2023-12-30T01:35:49.183Z,1.63
2023-12-30T01:38:16.292Z,1.65
2023-12-30T01:40:43.631Z,5.60
2023-12-30T01:43:31.293Z,1.50
2023-12-30T01:46:10.578Z,0.98
2023-12-30T01:48:38.674Z,0.75
2023-12-30T01:51:23.089Z,1.63
2023-12-30T01:53:53.256Z,1.35
2023-12-30T01:56:21.126Z,1.67
2023-12-30T01:58:51.066Z,1.10
2023-12-30T02:01:19.832Z,1.48
2023-12-30T02:03:47.737Z,1.23
2023-12-30T02:06:14.889Z,0.70
2023-12-30T02:08:42.047Z,1.10
2023-12-30T02:11:09.224Z,1.60
2023-12-30T02:13:36.478Z,0.75
2023-12-30T02:16:03.701Z,1.05
2023-12-30T02:18:30.838Z,1.70
2023-12-30T02:20:58.465Z,1.17
2023-12-30T02:23:25.593Z,1.08
2023-12-30T02:25:52.716Z,1.23
2023-12-30T02:28:19.998Z,0.90
2023-12-30T02:30:47.182Z,1.23
2023-12-30T02:33:14.466Z,0.90
2023-12-30T02:35:45.054Z,1.60
2023-12-30T02:38:12.365Z,1.08
2023-12-30T02:40:40.221Z,1.10
2023-12-30T02:43:07.414Z,0.80
2023-12-30T02:45:34.508Z,1.25
2023-12-30T02:48:01.727Z,1.20
2023-12-30T02:50:29.215Z,1.23
2023-12-30T02:52:56.540Z,1.25
2023-12-30T02:55:23.882Z,1.23
2023-12-30T02:57:51.102Z,0.93
2023-12-30T03:00:19.153Z,1.25
2023-12-30T03:02:47.249Z,1.50
2023-12-30T03:05:14.872Z,1.10
2023-12-30T03:07:42.224Z,0.85
2023-12-30T03:10:10.151Z,1.10
2023-12-30T03:12:37.389Z,1.20
2023-12-30T03:15:04.767Z,1.15
2023-12-30T03:17:31.946Z,1.00
2023-12-30T03:19:59.536Z,1.27
2023-12-30T03:22:27.554Z,1.35
2023-12-30T03:24:55.247Z,0.80
2023-12-30T03:27:22.547Z,1.25
2023-12-30T03:29:49.678Z,1.05
2023-12-30T03:32:16.848Z,1.17
2023-12-30T03:34:44.033Z,1.50
2023-12-30T03:37:11.292Z,1.05
2023-12-30T03:39:38.453Z,0.95
2023-12-30T03:42:05.734Z,1.02
2023-12-30T03:44:33.779Z,1.25
2023-12-30T03:47:00.953Z,1.45
2023-12-30T03:49:28.297Z,0.98
2023-12-30T03:51:55.510Z,1.05
2023-12-30T03:54:22.656Z,1.17
2023-12-30T03:56:49.801Z,0.85
2023-12-30T03:59:17.034Z,1.08
2023-12-30T04:01:45.014Z,1.23
2023-12-30T04:04:12.396Z,1.38
2023-12-30T04:06:39.551Z,1.10
2023-12-30T04:09:06.664Z,1.20
2023-12-30T04:11:33.885Z,1.30
2023-12-30T04:14:01.149Z,1.40
2023-12-30T04:16:28.266Z,1.38
2023-12-30T04:18:55.714Z,1.23
2023-12-30T04:21:22.955Z,1.17
2023-12-30T04:23:50.086Z,1.25
2023-12-30T04:26:17.235Z,1.02
2023-12-30T04:28:46.335Z,1.02
2023-12-30T04:31:13.671Z,1.27
2023-12-30T04:33:40.838Z,1.00
2023-12-30T04:36:08.442Z,1.33
2023-12-30T04:38:35.696Z,1.48
2023-12-30T04:41:02.837Z,1.50
2023-12-30T04:43:29.998Z,1.58
2023-12-30T04:45:57.251Z,1.33
2023-12-30T04:48:24.707Z,1.48
2023-12-30T04:50:51.819Z,1.05
2023-12-30T04:53:18.968Z,1.30
2023-12-30T04:55:46.062Z,1.23
2023-12-30T04:58:13.789Z,1.23
2023-12-30T05:00:40.948Z,1.30
2023-12-30T05:03:08.290Z,2.17
2023-12-30T05:05:35.735Z,1.15
2023-12-30T05:08:05.485Z,1.45
2023-12-30T05:10:34.536Z,2.30
2023-12-30T05:13:03.028Z,1.58
2023-12-30T05:15:30.355Z,2.35
2023-12-30T05:17:59.931Z,2.20
2023-12-30T05:20:27.461Z,2.10
2023-12-30T05:22:54.593Z,2.92
2023-12-30T05:25:21.835Z,3.03
2023-12-30T05:27:48.960Z,3.17
2023-12-30T05:30:16.450Z,3.05
2023-12-30T05:32:43.754Z,2.92
2023-12-30T05:35:10.972Z,2.58
2023-12-30T05:37:38.227Z,2.08
2023-12-30T05:40:09.635Z,2.25
2023-12-30T05:42:37.094Z,1.90
2023-12-30T05:45:04.840Z,1.48
2023-12-30T05:47:32.071Z,1.67
2023-12-30T05:49:59.264Z,1.60
2023-12-30T05:52:26.444Z,1.98
2023-12-30T05:54:53.653Z,2.47
2023-12-30T05:57:20.889Z,2.03
2023-12-30T05:59:48.503Z,2.90
2023-12-30T06:02:15.626Z,3.78
2023-12-30T06:04:43.285Z,3.72
2023-12-30T06:07:10.795Z,3.58
2023-12-30T06:09:38.016Z,4.28
2023-12-30T06:12:05.829Z,4.35
2023-12-30T06:14:32.932Z,4.53
2023-12-30T06:17:00.050Z,3.92
2023-12-30T06:19:27.331Z,4.45
2023-12-30T06:21:54.963Z,4.55
2023-12-30T06:24:23.695Z,4.07
2023-12-30T06:26:52.981Z,3.00
2023-12-30T06:29:22.861Z,3.85
2023-12-30T06:31:51.049Z,3.75
2023-12-30T06:34:18.301Z,4.00
2023-12-30T06:36:46.839Z,3.78
2023-12-30T06:39:18.571Z,2.90
2023-12-30T06:41:45.772Z,2.78
2023-12-30T06:44:12.950Z,2.17
2023-12-30T06:46:41.334Z,2.03
2023-12-30T06:49:08.651Z,1.77
2023-12-30T06:51:36.337Z,2.28
2023-12-30T06:54:03.803Z,1.42
2023-12-30T06:56:31.044Z,1.77
2023-12-30T06:58:58.325Z,1.58
2023-12-30T07:01:26.626Z,2.10
2023-12-30T07:03:54.192Z,1.95
2023-12-30T07:06:21.723Z,1.67
2023-12-30T07:08:48.896Z,2.47
2023-12-30T07:11:16.231Z,2.75
2023-12-30T07:13:43.487Z,3.22
2023-12-30T07:16:10.668Z,3.78
2023-12-30T07:18:37.831Z,6.90
2023-12-30T07:21:05.031Z,12.52
2023-12-30T07:23:32.111Z,20.70
2023-12-30T07:25:59.560Z,20.73
2023-12-30T07:28:26.771Z,23.55
2023-12-30T07:30:54.252Z,24.20
2023-12-30T07:33:21.604Z,18.85
2023-12-30T07:35:49.035Z,17.67
2023-12-30T07:38:16.280Z,13.27
2023-12-30T07:40:43.398Z,8.95
2023-12-30T07:43:11.130Z,8.07
2023-12-30T07:45:38.279Z,8.10
2023-12-30T07:48:06.104Z,8.02
2023-12-30T07:50:33.307Z,6.15
2023-12-30T07:53:00.675Z,5.05
2023-12-30T07:55:28.370Z,4.38
2023-12-30T07:57:55.479Z,3.85
2023-12-30T08:00:22.721Z,4.78
2023-12-30T08:02:50.016Z,5.15
2023-12-30T08:05:19.156Z,4.97
2023-12-30T08:07:46.446Z,5.15
2023-12-30T08:10:14.297Z,5.53
2023-12-30T08:12:41.470Z,5.55
2023-12-30T08:15:10.476Z,6.30
2023-12-30T08:17:38.170Z,6.97
2023-12-30T08:20:06.812Z,8.18
2023-12-30T08:22:34.006Z,7.72
2023-12-30T08:25:01.219Z,6.95
2023-12-30T08:27:28.993Z,2.65
2023-12-30T08:29:56.194Z,2.75
2023-12-30T08:32:23.341Z,2.80
2023-12-30T08:34:50.720Z,2.65
2023-12-30T08:37:18.747Z,2.22
2023-12-30T08:39:47.305Z,3.78
2023-12-30T08:42:14.481Z,3.67
2023-12-30T08:44:44.971Z,3.20
2023-12-30T08:47:13.243Z,4.60
2023-12-30T08:49:40.754Z,3.25
2023-12-30T08:52:08.114Z,3.55
2023-12-30T08:54:40.243Z,3.10
2023-12-30T08:57:07.563Z,3.10
2023-12-30T08:59:35.014Z,3.17
2023-12-30T09:02:02.742Z,2.88
2023-12-30T09:04:30.195Z,3.05
2023-12-30T09:06:58.148Z,3.00
2023-12-30T09:09:25.288Z,3.53
2023-12-30T09:11:52.613Z,2.30
2023-12-30T09:14:20.873Z,3.67
2023-12-30T09:16:48.384Z,5.68
2023-12-30T09:19:15.991Z,3.95
2023-12-30T09:21:43.174Z,3.25
2023-12-30T09:24:10.412Z,2.67
2023-12-30T09:26:37.610Z,2.70
2023-12-30T09:29:07.238Z,3.13
2023-12-30T09:31:34.623Z,2.97
2023-12-30T09:34:02.124Z,9.07
2023-12-30T09:36:29.911Z,4.63
2023-12-30T09:38:57.043Z,3.97
2023-12-30T09:41:25.962Z,3.28
2023-12-30T09:43:55.672Z,3.70
2023-12-30T09:46:24.458Z,4.00
2023-12-30T09:48:54.074Z,3.42
2023-12-30T09:51:22.904Z,3.50
2023-12-30T09:53:50.032Z,3.42
2023-12-30T09:56:19.314Z,3.85
2023-12-30T09:58:47.759Z,4.40
2023-12-30T10:01:15.258Z,2.40
2023-12-30T10:03:42.794Z,3.13
2023-12-30T10:06:13.548Z,1.92
2023-12-30T10:08:41.530Z,2.90
2023-12-30T10:11:09.810Z,3.08
2023-12-30T10:13:38.466Z,2.08
2023-12-30T10:16:07.255Z,2.92
2023-12-30T10:18:35.017Z,2.92
2023-12-30T10:21:05.056Z,3.53
2023-12-30T10:23:34.840Z,2.10
2023-12-30T10:26:04.053Z,2.53
2023-12-30T10:28:31.490Z,2.90
2023-12-30T10:31:06.414Z,2.78
2023-12-30T10:33:35.086Z,2.97
2023-12-30T10:36:02.776Z,3.35
2023-12-30T10:38:29.932Z,2.75
2023-12-30T10:40:57.333Z,2.58
2023-12-30T10:43:25.707Z,2.10
2023-12-30T10:46:00.365Z,3.33
2023-12-30T10:48:32.704Z,1.80
2023-12-30T10:51:00.943Z,2.92
2023-12-30T10:53:45.443Z,2.75
2023-12-30T10:56:21.274Z,2.35
2023-12-30T10:58:52.946Z,4.70
2023-12-30T11:01:21.829Z,3.33
2023-12-30T11:03:48.955Z,3.22
2023-12-30T11:06:30.136Z,2.35
2023-12-30T11:09:02.025Z,4.53
2023-12-30T11:11:29.744Z,3.70
2023-12-30T11:13:59.451Z,6.72
2023-12-30T11:16:27.195Z,5.28
2023-12-30T11:18:57.413Z,5.03
2023-12-30T11:21:36.966Z,4.25
2023-12-30T11:24:08.879Z,3.90
2023-12-30T11:26:38.966Z,4.40
2023-12-30T11:29:12.158Z,6.90
2023-12-30T11:31:42.457Z,3.70
2023-12-30T11:34:11.807Z,4.20
2023-12-30T11:36:40.582Z,3.92
2023-12-30T11:39:11.861Z,2.22
2023-12-30T11:41:39.060Z,8.38
2023-12-30T11:44:07.211Z,7.28
2023-12-30T11:46:35.203Z,13.98
2023-12-30T11:49:02.701Z,4.85
2023-12-30T11:51:31.134Z,5.40
2023-12-30T11:54:01.786Z,5.40
2023-12-30T11:56:30.648Z,5.60
2023-12-30T11:58:58.863Z,6.40
2023-12-30T12:01:26.175Z,4.40
2023-12-30T12:03:53.982Z,4.80
2023-12-30T12:06:21.402Z,5.63
2023-12-30T12:08:48.611Z,6.75
2023-12-30T12:11:15.828Z,5.53
2023-12-30T12:13:43.139Z,5.20
2023-12-30T12:16:11.207Z,8.48
2023-12-30T12:18:38.556Z,5.90
2023-12-30T12:21:12.884Z,6.25
2023-12-30T12:23:42.231Z,6.95
2023-12-30T12:26:09.571Z,7.40
2023-12-30T12:28:36.790Z,5.65
2023-12-30T12:31:07.267Z,6.85
2023-12-30T12:33:36.674Z,7.55
2023-12-30T12:36:06.292Z,7.70
2023-12-30T12:38:33.552Z,7.40
2023-12-30T12:41:00.660Z,8.15
2023-12-30T12:43:28.024Z,8.18
2023-12-30T12:45:55.204Z,9.48
2023-12-30T12:48:22.459Z,9.25
2023-12-30T12:50:49.692Z,8.85
2023-12-30T12:53:18.093Z,9.05
2023-12-30T12:55:45.289Z,9.05
2023-12-30T12:58:12.414Z,8.95
2023-12-30T13:00:39.715Z,9.68
2023-12-30T13:03:07.686Z,9.32
2023-12-30T13:05:35.262Z,10.52
2023-12-30T13:08:02.644Z,11.50
2023-12-30T13:10:32.913Z,9.93
2023-12-30T13:13:01.123Z,10.20
2023-12-30T13:15:29.105Z,9.55
2023-12-30T13:17:56.325Z,11.00
2023-12-30T13:20:23.538Z,9.15
2023-12-30T13:22:56.454Z,8.95
2023-12-30T13:25:23.795Z,9.52
2023-12-30T13:27:52.370Z,8.93
2023-12-30T13:30:23.982Z,8.57
2023-12-30T13:32:58.521Z,9.07
2023-12-30T13:35:38.125Z,8.18
2023-12-30T13:38:16.896Z,9.38
2023-12-30T13:40:44.661Z,7.60
2023-12-30T13:43:12.040Z,9.93
2023-12-30T13:45:48.356Z,12.45
2023-12-30T13:48:21.568Z,21.75
2023-12-30T13:50:56.240Z,9.35
2023-12-30T13:53:25.296Z,15.73
2023-12-30T13:55:59.369Z,15.32
2023-12-30T13:58:26.662Z,14.77
2023-12-30T14:00:56.477Z,10.80
2023-12-30T14:03:25.029Z,16.48
2023-12-30T14:05:52.326Z,12.02
2023-12-30T14:08:19.441Z,6.90
2023-12-30T14:10:50.480Z,12.20
2023-12-30T14:13:20.802Z,4.10
2023-12-30T14:15:48.942Z,5.45
2023-12-30T14:18:19.446Z,9.05
2023-12-30T14:20:48.127Z,4.20
2023-12-30T14:23:15.530Z,4.43
2023-12-30T14:25:42.770Z,3.97
2023-12-30T14:28:11.091Z,4.10
2023-12-30T14:30:39.864Z,4.72
2023-12-30T14:33:07.717Z,4.57
2023-12-30T14:35:35.299Z,5.50
2023-12-30T14:38:03.790Z,5.95
2023-12-30T14:40:30.896Z,3.72
2023-12-30T14:42:58.153Z,6.18
2023-12-30T14:45:25.288Z,5.70
2023-12-30T14:47:52.404Z,4.80
2023-12-30T14:50:19.621Z,3.50
2023-12-30T14:52:46.867Z,4.45
2023-12-30T14:55:14.166Z,3.67
2023-12-30T14:57:42.047Z,3.30
2023-12-30T15:00:16.910Z,4.32
2023-12-30T15:02:45.623Z,5.05
2023-12-30T15:05:15.636Z,5.57
2023-12-30T15:07:48.118Z,4.57
2023-12-30T15:10:16.507Z,4.97
2023-12-30T15:12:47.701Z,5.32
2023-12-30T15:15:15.700Z,5.60
2023-12-30T15:17:43.267Z,5.55
2023-12-30T15:20:10.739Z,6.60
2023-12-30T15:22:39.159Z,10.60
2023-12-30T15:25:07.074Z,8.75
2023-12-30T15:27:34.339Z,10.35
2023-12-30T15:30:01.974Z,7.53
2023-12-30T15:32:30.409Z,4.70
2023-12-30T15:34:59.336Z,4.93
2023-12-30T15:37:27.091Z,6.97
2023-12-30T15:39:54.341Z,4.75
2023-12-30T15:42:21.726Z,4.78
2023-12-30T15:44:48.746Z,4.75
2023-12-30T15:47:16.566Z,4.35
2023-12-30T15:49:44.045Z,6.65
2023-12-30T15:52:11.704Z,6.15
2023-12-30T15:54:39.661Z,7.07
2023-12-30T15:57:06.877Z,6.45
2023-12-30T15:59:33.987Z,6.32
2023-12-30T16:02:01.481Z,5.85
2023-12-30T16:04:29.259Z,5.82
2023-12-30T16:06:56.800Z,5.20
2023-12-30T16:09:23.925Z,4.97
2023-12-30T16:11:51.193Z,5.07
2023-12-30T16:14:18.327Z,4.47
2023-12-30T16:16:46.664Z,4.32
2023-12-30T16:19:17.318Z,4.40
2023-12-30T16:21:46.470Z,3.22
2023-12-30T16:24:14.674Z,4.35
2023-12-30T16:26:42.484Z,5.05
2023-12-30T16:29:10.013Z,6.28
2023-12-30T16:31:37.818Z,12.02
2023-12-30T16:34:05.369Z,6.28
2023-12-30T16:36:34.275Z,4.25
2023-12-30T16:39:02.596Z,5.03
2023-12-30T16:41:29.774Z,5.60
2023-12-30T16:43:56.882Z,4.78
2023-12-30T16:46:25.254Z,4.90
2023-12-30T16:48:52.885Z,6.60
2023-12-30T16:51:20.167Z,5.15
2023-12-30T16:53:47.862Z,6.72
2023-12-30T16:56:17.013Z,5.35
2023-12-30T16:58:44.230Z,23.67
2023-12-30T17:01:11.470Z,6.93
2023-12-30T17:03:38.596Z,30.13
2023-12-30T17:06:06.315Z,19.08
2023-12-30T17:08:33.464Z,8.05
2023-12-30T17:11:00.684Z,9.35
2023-12-30T17:13:35.140Z,6.90
2023-12-30T17:16:07.658Z,10.45
2023-12-30T17:18:35.234Z,16.73
2023-12-30T17:21:02.968Z,12.13
2023-12-30T17:23:30.105Z,6.57
2023-12-30T17:25:57.188Z,3.95
2023-12-30T17:28:24.382Z,6.43
2023-12-30T17:30:51.589Z,4.28
2023-12-30T17:33:18.811Z,1.85
2023-12-30T17:35:46.093Z,2.50
2023-12-30T17:38:13.556Z,2.75
2023-12-30T17:40:40.940Z,4.03
2023-12-30T17:43:08.065Z,3.70
2023-12-30T17:45:35.185Z,3.13
2023-12-30T17:48:02.722Z,3.45
2023-12-30T17:50:29.881Z,3.00
2023-12-30T17:52:56.956Z,3.22
2023-12-30T17:55:24.064Z,3.03
2023-12-30T17:57:51.228Z,3.90
2023-12-30T18:00:18.587Z,2.95
2023-12-30T18:02:45.701Z,4.25
2023-12-30T18:05:13.154Z,3.75
2023-12-30T18:07:40.552Z,2.97
2023-12-30T18:10:07.989Z,5.60
2023-12-30T18:12:35.171Z,4.22
2023-12-30T18:15:04.793Z,3.58
2023-12-30T18:17:32.858Z,5.88
2023-12-30T18:20:00.342Z,3.55
2023-12-30T18:22:28.177Z,2.88
2023-12-30T18:24:55.354Z,2.35
2023-12-30T18:27:23.672Z,3.00
2023-12-30T18:29:50.807Z,3.13
2023-12-30T18:32:18.193Z,4.72
2023-12-30T18:34:45.344Z,6.82
2023-12-30T18:37:15.148Z,6.88
2023-12-30T18:39:42.488Z,8.57
2023-12-30T18:42:09.541Z,13.77
2023-12-30T18:44:36.620Z,5.18
2023-12-30T18:47:04.148Z,3.53
2023-12-30T18:49:31.272Z,3.38
2023-12-30T18:51:58.704Z,4.13
2023-12-30T18:54:25.883Z,5.72
2023-12-30T18:56:52.999Z,6.10
2023-12-30T18:59:20.140Z,6.60
2023-12-30T19:01:48.198Z,5.40
2023-12-30T19:04:15.550Z,5.45
2023-12-30T19:06:42.806Z,7.03
2023-12-30T19:09:10.262Z,5.35
2023-12-30T19:11:38.207Z,3.63
2023-12-30T19:14:05.311Z,4.25
2023-12-30T19:16:32.474Z,3.50
2023-12-30T19:19:00.061Z,3.67
2023-12-30T19:21:27.351Z,4.13
2023-12-30T19:23:55.043Z,5.00
2023-12-30T19:26:22.109Z,3.08
2023-12-30T19:28:49.258Z,2.72
2023-12-30T19:31:16.773Z,1.50
2023-12-30T19:33:44.256Z,2.83
2023-12-30T19:36:11.881Z,3.45
2023-12-30T19:38:39.716Z,4.20
2023-12-30T19:41:07.170Z,2.92
2023-12-30T19:43:35.596Z,2.65
2023-12-30T19:46:07.048Z,2.58
2023-12-30T19:48:35.801Z,1.90
2023-12-30T19:51:05.665Z,3.30
2023-12-30T19:53:33.721Z,2.83
2023-12-30T19:56:02.866Z,3.53
2023-12-30T19:58:32.047Z,3.03
2023-12-30T20:00:59.958Z,4.78
2023-12-30T20:03:27.285Z,4.93
2023-12-30T20:05:54.830Z,4.05
2023-12-30T20:08:22.639Z,5.50
2023-12-30T20:10:49.912Z,7.20
2023-12-30T20:13:17.211Z,6.35
2023-12-30T20:15:44.480Z,6.07
2023-12-30T20:18:11.702Z,5.57
2023-12-30T20:20:38.931Z,4.95
2023-12-30T20:23:06.972Z,4.63
2023-12-30T20:25:34.359Z,3.25
2023-12-30T20:28:01.832Z,3.15
2023-12-30T20:30:29.169Z,3.45
2023-12-30T20:32:56.303Z,3.40
2023-12-30T20:35:23.456Z,3.65
2023-12-30T20:37:50.536Z,3.65
2023-12-30T20:40:19.258Z,3.33
2023-12-30T20:42:46.870Z,3.33
2023-12-30T20:45:18.159Z,3.38
2023-12-30T20:47:45.369Z,3.33
2023-12-30T20:50:12.625Z,3.05
2023-12-30T20:52:39.912Z,3.00
2023-12-30T20:55:07.691Z,2.78
2023-12-30T20:57:35.276Z,3.05
2023-12-30T21:00:02.732Z,2.67
2023-12-30T21:02:29.923Z,2.53
2023-12-30T21:04:58.217Z,2.25
2023-12-30T21:07:25.620Z,2.35
2023-12-30T21:09:52.994Z,2.10
2023-12-30T21:12:20.243Z,1.85
2023-12-30T21:14:48.005Z,2.25
2023-12-30T21:17:15.192Z,2.25
2023-12-30T21:19:42.409Z,2.28
2023-12-30T21:22:09.748Z,2.45
2023-12-30T21:24:40.189Z,1.70
2023-12-30T21:27:07.612Z,1.77
2023-12-30T21:29:38.462Z,2.00
2023-12-30T21:32:07.546Z,1.70
2023-12-30T21:34:34.722Z,1.85
2023-12-30T21:37:02.016Z,2.00
2023-12-30T21:39:29.556Z,1.77
2023-12-30T21:41:56.660Z,1.90
2023-12-30T21:44:23.846Z,1.88
2023-12-30T21:46:50.956Z,1.77
2023-12-30T21:49:19.756Z,2.05
2023-12-30T21:51:47.177Z,1.92
2023-12-30T21:54:14.949Z,2.33
2023-12-30T21:56:43.238Z,1.80
2023-12-30T21:59:10.597Z,1.52
2023-12-30T22:01:37.836Z,2.20
2023-12-30T22:04:06.364Z,2.03
2023-12-30T22:06:33.942Z,1.58
2023-12-30T22:09:01.217Z,2.00
2023-12-30T22:11:28.812Z,1.90
2023-12-30T22:13:56.781Z,2.25
2023-12-30T22:16:24.205Z,2.45
2023-12-30T22:18:51.612Z,2.30
2023-12-30T22:21:19.323Z,2.08
2023-12-30T22:23:48.141Z,2.00
2023-12-30T22:26:19.119Z,1.80
2023-12-30T22:28:46.399Z,2.00
2023-12-30T22:31:14.111Z,1.75
2023-12-30T22:33:41.580Z,1.90
2023-12-30T22:36:09.117Z,2.50
2023-12-30T22:38:36.701Z,1.80
2023-12-30T22:41:04.615Z,1.58
2023-12-30T22:43:31.891Z,1.85
2023-12-30T22:45:59.483Z,1.42
2023-12-30T22:48:26.658Z,1.60
2023-12-30T22:50:53.827Z,1.50
2023-12-30T22:53:20.995Z,1.50
2023-12-30T22:55:49.605Z,1.63
2023-12-30T22:58:17.031Z,1.50
2023-12-30T23:00:44.365Z,1.40
2023-12-30T23:03:11.493Z,1.73
2023-12-30T23:05:38.932Z,1.30
2023-12-30T23:08:06.767Z,1.33
2023-12-30T23:10:33.965Z,1.40
2023-12-30T23:13:01.531Z,2.28
2023-12-30T23:15:29.745Z,3.30
2023-12-30T23:17:56.965Z,1.80
2023-12-30T23:20:24.182Z,1.70
2023-12-30T23:22:52.568Z,1.33
2023-12-30T23:25:19.812Z,2.00
2023-12-30T23:27:50.127Z,1.20
2023-12-30T23:30:17.330Z,2.05
2023-12-30T23:32:44.535Z,1.52
2023-12-30T23:35:11.884Z,1.38
2023-12-30T23:37:39.076Z,1.50
2023-12-30T23:40:08.885Z,1.70
2023-12-30T23:42:36.674Z,1.77
2023-12-30T23:45:05.086Z,1.65
2023-12-30T23:47:32.685Z,2.00
2023-12-30T23:49:59.883Z,2.47
2023-12-30T23:52:27.370Z,2.38
2023-12-30T23:54:55.373Z,2.40
2023-12-30T23:57:22.472Z,1.80
2023-12-30T23:59:49.608Z,1.95
